Easton, MN

7:02 AM CDT on August 27, 2014 (GMT -0500)
MN Lake | Change Station
CLOSE
Current Station
Personal Weather Station
Location: Minnesota Lake, MN
Elevation: 1040 ft
Nearby Weather Stations

Elev 1040 ft 43.84 °N, 93.83 °W | Updated 27 seconds ago

Partly Cloudy
Partly Cloudy
57.2 °F
Feels Like 57.2 °F
N
1.0
Wind Variable Wind from NNE
Gusts 2.0 mph

Today
High -- | Low -- °F
--% Chance of Precip.
Yesterday
High -- | Low -- °F
Precip. -- in
6:33 AM 8:00 PM
Waxing Crescent, 3% visible
Pressure 30.17 in
Visibility 10.0 miles
Clouds Scattered Clouds 6000 ft
Dew Point 56 °F
Humidity 96%
Rainfall 0.00 in
Snow Depth Not available.
UV 0 out of 12
Pollen 8.60 out of 12
Air Quality Not available.
Flu Activity Not available.
METAR KFRM 271155Z 00000KT 10SM SCT060 13/11 A3017 RMK AO1 10140 20120 57007

More Conditions Fewer Conditions

Pressure 30.17 in
Visibility 10.0 miles
Clouds Scattered Clouds 6000 ft
Dew Point 56 °F
Humidity 96%
Rainfall 0.00 in
Snow Depth Not available.
UV 0 out of 12
Pollen 8.60 out of 12
Air Quality Not available.
Flu Activity Not available.
METAR KFRM 271155Z 00000KT 10SM SCT060 13/11 A3017 RMK AO1 10140 20120 57007

More Conditions Fewer Conditions

10-Day Weather Forecast

Almanac

Astronomy

Aug. 27, 2014 Rise Set
Actual Time 6:33 AM CDT 8:00 PM CDT
Civil Twilight 6:03 AM CDT 8:29 PM CDT
Nautical Twilight 5:27 AM CDT 9:05 PM CDT
Astronomical Twilight 4:48 AM CDT 9:44 PM CDT
Moon 8:35 AM CDT 8:46 PM CDT
Length of Visible Light 14h 26m
Length of Day
13h 26m
Tomorrow will be 2m 50s shorter.
Waxing Crescent, 3% of the Moon is Illuminated
Today
Waxing Crescent
Sep 2
First Quarter
Sep 8
Full
Sep 15
Last Quarter
Sep 24
New

Today's Extremes

State Highs State Lows

Community

WunderPhotos

Upload Photos

1,747,673 photos uploaded!

Nearby

Snow Depth

Station Depth Elevation
No new snow has been reported.

Earthquake Activity

City Distance Mag. Time & Date
No recent earthquake activity has been reported nearby.
Minimum magnitude displayed is 2.5.

Coastal Water Temperatures

Place Temperature
No Stations Reporting

Nearby Weather Stations